Time;durP1;ratioP1;P1;durP2;ratioP2;P2;SDS_P1;SDS_P2;PMS_P1;PMS_P2;Temp;Humidity;BMP_temperature;BMP_pressure;BME280_temperature;BME280_humidity;BME280_pressure;Samples;Min_cycle;Max_cycle;Signal;HPM_P1;HPM_P2
2023/05/30 00:00:45;;;;;;;6.77;2.47;;;11.30;99.90;;;;;;5084816;28;20212;-60
2023/05/30 00:03:11;;;;;;;6.60;1.90;;;11.40;99.90;;;;;;5085449;28;20320;-60
2023/05/30 00:05:39;;;;;;;9.50;2.40;;;11.30;99.90;;;;;;5086753;28;20201;-60
2023/05/30 00:08:06;;;;;;;8.73;1.80;;;11.20;99.90;;;;;;5069292;28;20204;-60
2023/05/30 00:10:33;;;;;;;7.10;1.70;;;11.10;99.90;;;;;;5083507;28;20203;-65
2023/05/30 00:13:00;;;;;;;10.23;2.60;;;11.30;99.90;;;;;;5083291;28;20213;-63
2023/05/30 00:15:27;;;;;;;9.90;2.07;;;11.40;99.90;;;;;;5070288;28;20299;-60
2023/05/30 00:17:54;;;;;;;10.20;2.60;;;11.40;99.90;;;;;;5082073;28;20214;-60
2023/05/30 00:20:22;;;;;;;6.63;2.23;;;11.20;99.90;;;;;;5084659;28;20295;-60
2023/05/30 00:22:49;;;;;;;10.30;2.70;;;11.10;99.90;;;;;;5083620;28;20199;-60
2023/05/30 00:25:20;;;;;;;10.43;2.30;;;11.10;99.90;;;;;;5086273;28;20243;-60
2023/05/30 00:27:47;;;;;;;10.17;2.10;;;11.10;99.90;;;;;;5085434;28;20271;-60
2023/05/30 00:30:14;;;;;;;11.17;2.17;;;11.20;99.90;;;;;;5087015;28;20199;-60
2023/05/30 00:32:41;;;;;;;9.20;2.30;;;11.20;99.90;;;;;;5082158;28;20221;-60
2023/05/30 00:35:08;;;;;;;9.20;2.20;;;11.10;99.90;;;;;;5082853;28;20300;-60
2023/05/30 00:37:35;;;;;;;5.53;2.00;;;11.20;99.90;;;;;;5084988;28;20208;-60
2023/05/30 00:40:03;;;;;;;10.50;2.23;;;11.30;99.90;;;;;;5059596;28;20196;-60
2023/05/30 00:42:30;;;;;;;6.63;2.17;;;11.20;99.90;;;;;;5084157;28;20204;-61
2023/05/30 00:44:57;;;;;;;9.43;2.93;;;11.20;99.90;;;;;;5081691;28;20218;-60
2023/05/30 00:47:25;;;;;;;7.07;1.97;;;11.20;99.90;;;;;;5085263;28;20678;-60
2023/05/30 00:49:54;;;;;;;6.87;2.23;;;11.20;99.90;;;;;;5084511;28;20322;-60
2023/05/30 00:52:21;;;;;;;8.13;2.30;;;11.10;99.90;;;;;;5083689;28;20206;-60
2023/05/30 00:54:48;;;;;;;12.30;2.40;;;11.10;99.90;;;;;;5061643;28;20230;-60
2023/05/30 00:57:15;;;;;;;3.90;1.90;;;11.20;99.90;;;;;;5067958;28;20199;-63
2023/05/30 00:59:43;;;;;;;7.47;2.20;;;11.20;99.90;;;;;;5082655;28;20282;-60
2023/05/30 01:02:11;;;;;;;4.93;2.30;;;11.20;99.90;;;;;;5082635;28;20200;-60
2023/05/30 01:04:38;;;;;;;11.07;2.47;;;11.00;99.90;;;;;;5082878;28;20571;-60
2023/05/30 01:07:06;;;;;;;10.47;2.60;;;11.00;99.90;;;;;;5085621;28;20234;-60
2023/05/30 01:09:33;;;;;;;7.93;2.63;;;10.90;99.90;;;;;;5083613;28;20295;-60
2023/05/30 01:12:23;;;;;;;11.27;2.47;;;10.90;99.90;;;;;;5083239;28;20226;-60
2023/05/30 01:15:17;;;;;;;8.53;2.70;;;10.90;99.90;;;;;;5080458;28;20208;-60
2023/05/30 01:18:03;;;;;;;8.63;2.07;;;10.90;99.90;;;;;;5084923;28;20201;-59
2023/05/30 01:20:40;;;;;;;9.20;2.30;;;10.90;99.90;;;;;;5085327;28;20545;-60
2023/05/30 01:23:18;;;;;;;12.80;2.20;;;10.70;99.90;;;;;;5081611;28;20712;-60
2023/05/30 01:25:52;;;;;;;10.37;2.53;;;10.80;99.90;;;;;;5068433;28;20210;-62
2023/05/30 01:28:22;;;;;;;9.83;2.60;;;10.80;99.90;;;;;;5083763;28;20323;-61
2023/05/30 01:30:52;;;;;;;7.93;3.00;;;10.90;99.90;;;;;;5061811;28;20244;-62
2023/05/30 01:33:20;;;;;;;12.00;2.83;;;10.90;99.90;;;;;;5085447;28;20222;-60
2023/05/30 01:35:47;;;;;;;10.57;2.40;;;10.80;99.90;;;;;;5089455;28;20230;-60
2023/05/30 01:38:15;;;;;;;6.50;2.13;;;10.70;99.90;;;;;;5087470;28;20195;-60
2023/05/30 01:40:48;;;;;;;9.13;2.57;;;10.90;99.90;;;;;;5088454;28;20203;-61
2023/05/30 01:43:32;;;;;;;10.47;2.60;;;10.60;99.90;;;;;;5079065;28;20216;-60
2023/05/30 01:46:10;;;;;;;12.13;2.90;;;10.70;99.90;;;;;;5087758;28;20297;-60
2023/05/30 01:49:12;;;;;;;7.10;2.30;;;10.70;99.90;;;;;;5087127;28;20301;-60
2023/05/30 01:52:12;;;;;;;9.13;2.40;;;10.70;99.90;;;;;;5072181;28;20207;-60
2023/05/30 01:54:42;;;;;;;9.77;2.90;;;10.80;99.90;;;;;;5073908;28;20309;-60
2023/05/30 01:57:12;;;;;;;6.33;2.30;;;10.70;99.90;;;;;;5084902;28;20454;-60
2023/05/30 01:59:41;;;;;;;8.93;2.73;;;10.50;99.90;;;;;;5085575;28;20262;-60
2023/05/30 02:02:10;;;;;;;11.73;3.33;;;10.70;99.90;;;;;;5085162;28;20219;-60
2023/05/30 02:04:37;;;;;;;8.40;2.70;;;10.60;99.90;;;;;;5084167;28;20252;-62
2023/05/30 02:07:04;;;;;;;11.17;2.63;;;10.60;99.90;;;;;;5083139;28;20205;-61
2023/05/30 02:09:31;;;;;;;7.37;2.30;;;10.50;99.90;;;;;;5084570;28;20791;-60
2023/05/30 02:11:58;;;;;;;9.83;2.57;;;10.60;99.90;;;;;;5064655;28;20285;-60
2023/05/30 02:14:25;;;;;;;10.53;3.20;;;10.50;99.90;;;;;;5073278;28;20245;-60
2023/05/30 02:16:52;;;;;;;12.70;3.70;;;10.70;99.90;;;;;;5087294;28;20243;-60
2023/05/30 02:19:19;;;;;;;9.03;2.47;;;10.70;99.90;;;;;;5087205;28;20719;-59
2023/05/30 02:21:46;;;;;;;11.00;2.67;;;10.60;99.90;;;;;;5088154;28;20211;-60
2023/05/30 02:24:13;;;;;;;9.63;2.67;;;10.60;99.90;;;;;;5086049;28;20725;-59
2023/05/30 02:26:40;;;;;;;9.50;3.07;;;10.60;99.90;;;;;;5076848;28;20298;-59
2023/05/30 02:29:07;;;;;;;12.83;3.17;;;10.50;99.90;;;;;;5084457;28;20240;-60
2023/05/30 02:31:34;;;;;;;8.57;2.97;;;10.40;99.90;;;;;;5085649;28;20196;-60
2023/05/30 02:34:01;;;;;;;8.93;2.80;;;10.50;99.90;;;;;;5085958;28;20223;-60
2023/05/30 02:36:28;;;;;;;9.33;2.43;;;10.40;99.90;;;;;;5068939;28;20202;-60
2023/05/30 02:38:55;;;;;;;5.07;2.57;;;10.40;99.90;;;;;;5084440;28;20222;-60
2023/05/30 02:41:22;;;;;;;7.83;2.53;;;10.40;99.90;;;;;;5086821;28;20251;-60
2023/05/30 02:43:49;;;;;;;10.77;2.90;;;10.50;99.90;;;;;;5084567;28;20559;-60
2023/05/30 02:46:16;;;;;;;8.60;3.10;;;10.50;99.90;;;;;;5083339;28;20196;-60
2023/05/30 02:48:43;;;;;;;11.47;3.03;;;10.40;99.90;;;;;;5087197;28;20198;-60
2023/05/30 02:51:10;;;;;;;9.70;3.20;;;10.50;99.90;;;;;;5085909;28;20332;-60
2023/05/30 02:53:37;;;;;;;7.23;2.70;;;10.40;99.90;;;;;;5085817;28;20649;-59
2023/05/30 02:56:04;;;;;;;13.20;3.30;;;10.40;99.90;;;;;;5085894;28;20197;-60
2023/05/30 02:58:31;;;;;;;12.30;3.00;;;10.40;99.90;;;;;;5062536;28;20199;-60
2023/05/30 03:00:58;;;;;;;9.83;3.10;;;10.50;99.90;;;;;;5073233;28;20195;-60
2023/05/30 03:03:25;;;;;;;9.17;2.47;;;10.50;99.90;;;;;;5081093;28;20562;-59
2023/05/30 03:05:53;;;;;;;7.43;2.87;;;10.50;99.90;;;;;;5086927;28;20302;-61
2023/05/30 03:08:20;;;;;;;10.07;3.07;;;10.30;99.90;;;;;;5086443;28;20206;-60
2023/05/30 03:10:52;;;;;;;7.00;2.63;;;10.40;99.90;;;;;;5083780;28;20628;-60
2023/05/30 03:13:19;;;;;;;11.27;3.17;;;10.40;99.90;;;;;;5083775;28;20240;-60
2023/05/30 03:15:46;;;;;;;13.17;3.10;;;10.30;99.90;;;;;;5072263;28;20287;-60
2023/05/30 03:18:13;;;;;;;13.87;2.73;;;10.30;99.90;;;;;;5085206;28;20597;-60
2023/05/30 03:20:40;;;;;;;10.53;3.03;;;10.30;99.90;;;;;;5084523;28;20295;-60
2023/05/30 03:23:07;;;;;;;11.67;3.03;;;10.30;99.90;;;;;;5080465;28;20221;-61
2023/05/30 03:25:35;;;;;;;12.27;2.83;;;10.40;99.90;;;;;;5086053;28;20234;-60
2023/05/30 03:28:06;;;;;;;13.13;3.20;;;10.50;99.90;;;;;;5064881;28;20239;-60
2023/05/30 03:30:33;;;;;;;7.97;2.67;;;10.40;99.90;;;;;;5083732;28;20208;-59
2023/05/30 03:33:01;;;;;;;12.20;3.50;;;10.60;99.90;;;;;;5081081;28;20223;-60
2023/05/30 03:35:28;;;;;;;8.37;2.90;;;10.40;99.90;;;;;;5079924;28;20261;-61
2023/05/30 03:37:55;;;;;;;8.97;2.93;;;10.60;99.90;;;;;;5083401;28;20219;-60
2023/05/30 03:40:21;;;;;;;13.90;4.10;;;10.60;99.90;;;;;;5085591;28;20241;-60
2023/05/30 03:42:50;;;;;;;9.90;3.57;;;10.60;99.90;;;;;;5081121;28;20572;-59
2023/05/30 03:45:17;;;;;;;12.93;3.00;;;10.50;99.90;;;;;;5086960;28;20219;-60
2023/05/30 03:47:44;;;;;;;5.47;2.53;;;10.40;99.90;;;;;;5065704;28;20609;-60
2023/05/30 03:50:11;;;;;;;6.90;3.00;;;10.50;99.90;;;;;;5084353;28;20716;-60
2023/05/30 03:52:38;;;;;;;12.07;3.70;;;10.40;99.90;;;;;;5079982;28;20207;-60
2023/05/30 03:55:05;;;;;;;7.70;2.87;;;10.50;99.90;;;;;;5061671;28;20213;-60
2023/05/30 03:57:32;;;;;;;12.40;3.43;;;10.60;99.90;;;;;;5085380;28;20551;-60
2023/05/30 03:59:59;;;;;;;9.03;3.30;;;10.70;99.90;;;;;;5082388;28;20577;-62
2023/05/30 04:02:26;;;;;;;8.13;3.40;;;10.60;99.90;;;;;;5082325;28;20747;-60
2023/05/30 04:04:53;;;;;;;16.10;3.80;;;10.50;99.90;;;;;;5083028;28;20591;-60
2023/05/30 04:07:20;;;;;;;10.13;2.87;;;10.50;99.90;;;;;;5081172;28;20833;-61
2023/05/30 04:09:47;;;;;;;12.80;3.83;;;10.50;99.90;;;;;;5057713;28;20207;-60
2023/05/30 04:12:14;;;;;;;16.53;3.87;;;10.50;99.90;;;;;;5084594;28;20207;-61
2023/05/30 04:14:41;;;;;;;11.43;3.80;;;10.50;99.90;;;;;;5081778;28;20249;-60
2023/05/30 04:17:08;;;;;;;10.57;3.23;;;10.60;99.90;;;;;;5064660;28;20596;-60
2023/05/30 04:19:35;;;;;;;8.83;3.57;;;10.70;99.90;;;;;;5085822;28;20203;-65
2023/05/30 04:22:02;;;;;;;10.60;3.23;;;10.70;99.90;;;;;;5084833;28;20196;-66
2023/05/30 04:24:31;;;;;;;10.47;3.37;;;10.70;99.90;;;;;;5082755;28;20457;-60
2023/05/30 04:26:58;;;;;;;8.63;3.50;;;10.70;99.90;;;;;;5085164;28;20203;-60
2023/05/30 04:29:25;;;;;;;10.93;3.67;;;10.80;99.90;;;;;;5082903;28;20647;-60
2023/05/30 04:31:52;;;;;;;12.43;3.70;;;10.90;99.90;;;;;;5084444;28;20209;-60
2023/05/30 04:34:19;;;;;;;7.70;3.70;;;10.80;99.90;;;;;;5084024;28;20662;-60
2023/05/30 04:36:46;;;;;;;7.53;4.10;;;11.00;99.90;;;;;;5085496;28;20206;-60
2023/05/30 04:39:13;;;;;;;5.50;2.87;;;11.00;99.90;;;;;;5085426;28;20216;-60
2023/05/30 04:41:40;;;;;;;11.50;3.30;;;11.10;99.90;;;;;;5081481;28;20205;-60
2023/05/30 04:44:07;;;;;;;9.47;3.03;;;11.30;99.90;;;;;;5059629;28;20672;-61
2023/05/30 04:46:35;;;;;;;7.50;3.27;;;11.20;99.90;;;;;;5082618;28;20196;-60
2023/05/30 04:49:02;;;;;;;11.10;3.20;;;11.20;99.90;;;;;;5083908;28;20249;-61
2023/05/30 04:51:30;;;;;;;9.73;3.57;;;11.40;99.90;;;;;;5082978;28;20621;-60
2023/05/30 04:53:57;;;;;;;10.57;3.00;;;11.20;99.90;;;;;;5082324;28;20216;-60
2023/05/30 04:56:26;;;;;;;9.97;2.70;;;11.20;99.90;;;;;;5066792;28;20287;-60
2023/05/30 04:58:53;;;;;;;9.37;3.20;;;11.20;99.90;;;;;;5081362;28;20655;-59
2023/05/30 05:01:23;;;;;;;11.43;3.20;;;11.30;99.90;;;;;;5061198;28;20549;-60
2023/05/30 05:03:51;;;;;;;8.20;3.00;;;11.40;99.90;;;;;;5079671;28;20207;-60
2023/05/30 05:06:18;;;;;;;10.37;2.80;;;11.50;99.90;;;;;;5085040;28;20213;-60
2023/05/30 05:08:44;;;;;;;8.40;3.33;;;11.30;99.90;;;;;;5087891;28;20607;-60
2023/05/30 05:11:12;;;;;;;8.37;3.33;;;11.20;99.90;;;;;;5086601;28;20192;-60
2023/05/30 05:13:39;;;;;;;8.73;2.80;;;11.20;99.90;;;;;;5085843;28;20317;-60
2023/05/30 05:16:06;;;;;;;11.07;3.00;;;11.20;99.90;;;;;;5087826;28;20298;-60
2023/05/30 05:18:33;;;;;;;5.73;3.00;;;11.30;99.90;;;;;;5088734;28;20199;-60
2023/05/30 05:21:00;;;;;;;7.00;3.10;;;11.40;99.90;;;;;;5086092;28;20236;-62
2023/05/30 05:23:28;;;;;;;11.43;4.13;;;11.50;99.90;;;;;;5087763;28;20300;-60
2023/05/30 05:25:56;;;;;;;7.80;2.87;;;11.60;99.90;;;;;;5089043;28;20571;-60
2023/05/30 05:28:23;;;;;;;7.53;3.50;;;11.50;99.90;;;;;;5088174;28;20227;-60
2023/05/30 05:30:50;;;;;;;10.07;3.07;;;11.50;99.90;;;;;;5090980;28;20200;-60
2023/05/30 05:33:18;;;;;;;9.17;2.87;;;11.50;99.90;;;;;;5086548;28;20232;-60
2023/05/30 05:35:48;;;;;;;10.67;3.33;;;11.60;99.90;;;;;;5084538;28;20677;-59
2023/05/30 05:38:16;;;;;;;4.37;2.73;;;11.80;99.90;;;;;;5087377;28;20207;-61
2023/05/30 05:40:43;;;;;;;10.90;3.60;;;11.80;99.90;;;;;;5088550;28;20570;-60
2023/05/30 05:43:10;;;;;;;10.40;3.97;;;11.70;99.90;;;;;;5085681;28;20204;-59
2023/05/30 05:45:38;;;;;;;9.13;3.50;;;11.70;99.90;;;;;;5085724;28;20210;-59
2023/05/30 05:48:05;;;;;;;8.43;3.00;;;11.60;99.90;;;;;;5084028;28;20199;-59
2023/05/30 05:50:32;;;;;;;8.00;3.03;;;11.60;99.90;;;;;;5086877;28;20216;-60
2023/05/30 05:52:58;;;;;;;7.67;3.40;;;11.60;99.90;;;;;;5068257;28;20574;-60
2023/05/30 05:55:25;;;;;;;12.53;3.37;;;11.60;99.90;;;;;;5086947;28;20536;-60
2023/05/30 05:57:52;;;;;;;6.23;2.90;;;11.50;99.90;;;;;;5087415;28;20625;-59
2023/05/30 06:00:22;;;;;;;9.43;4.37;;;11.60;99.90;;;;;;5082264;28;20675;-60
2023/05/30 06:02:49;;;;;;;9.70;3.80;;;11.90;99.90;;;;;;5077900;28;20596;-59
2023/05/30 06:05:17;;;;;;;12.23;3.70;;;11.80;99.90;;;;;;5080726;28;20216;-59
2023/05/30 06:07:43;;;;;;;11.57;3.53;;;11.80;99.90;;;;;;5083089;28;20200;-60
2023/05/30 06:10:10;;;;;;;8.27;2.97;;;11.80;99.90;;;;;;5084649;28;20280;-60
2023/05/30 06:12:37;;;;;;;11.27;3.83;;;11.90;99.90;;;;;;5082150;28;20224;-60
2023/05/30 06:15:06;;;;;;;10.03;3.67;;;11.70;99.90;;;;;;5085180;28;20612;-61
2023/05/30 06:17:33;;;;;;;4.70;3.30;;;11.70;99.90;;;;;;5083155;28;20290;-59
2023/05/30 06:20:00;;;;;;;7.47;3.40;;;11.70;99.90;;;;;;5081654;28;20239;-59
2023/05/30 06:22:27;;;;;;;10.77;3.43;;;11.70;99.90;;;;;;5062124;28;20211;-59
2023/05/30 06:24:53;;;;;;;9.40;3.53;;;11.80;99.90;;;;;;4714876;28;9999878;-60
2023/05/30 06:27:21;;;;;;;6.80;3.97;;;11.80;99.90;;;;;;5063413;28;20294;-61
2023/05/30 06:29:47;;;;;;;7.67;3.40;;;11.80;99.90;;;;;;5075411;28;20208;-60
2023/05/30 06:32:15;;;;;;;10.43;4.20;;;11.90;99.90;;;;;;5056199;28;20224;-60
2023/05/30 06:34:45;;;;;;;8.57;3.60;;;11.90;99.90;;;;;;5062091;28;20219;-60
2023/05/30 06:37:13;;;;;;;13.47;4.00;;;12.20;99.90;;;;;;5079558;28;20194;-60
2023/05/30 06:39:40;;;;;;;11.00;3.60;;;12.20;99.90;;;;;;5077158;28;20278;-61
2023/05/30 06:42:11;;;;;;;8.00;3.47;;;12.30;99.90;;;;;;5073853;28;20632;-60
2023/05/30 06:44:38;;;;;;;6.83;3.50;;;12.20;99.90;;;;;;5068694;28;20272;-60
2023/05/30 06:47:05;;;;;;;7.97;3.53;;;12.50;99.90;;;;;;5078227;28;20221;-60
2023/05/30 06:49:32;;;;;;;12.23;3.80;;;12.60;99.90;;;;;;5076920;28;20221;-60
2023/05/30 06:52:00;;;;;;;7.90;3.47;;;12.50;99.90;;;;;;5080297;28;20669;-60
2023/05/30 06:54:27;;;;;;;7.03;4.60;;;12.60;99.90;;;;;;5081866;28;20666;-60
2023/05/30 06:56:53;;;;;;;5.20;3.43;;;12.60;99.90;;;;;;5068467;28;20661;-60
2023/05/30 06:59:21;;;;;;;11.40;3.47;;;12.40;99.90;;;;;;5084426;28;20221;-60
2023/05/30 07:01:47;;;;;;;12.67;4.07;;;12.20;99.90;;;;;;5075655;28;20229;-60
2023/05/30 07:04:14;;;;;;;9.73;3.93;;;12.20;1.00;;;;;;5080953;28;20229;-60
2023/05/30 07:06:41;;;;;;;8.40;3.50;;;12.30;1.00;;;;;;5067962;28;20221;-60
2023/05/30 07:09:08;;;;;;;5.93;3.87;;;12.40;99.90;;;;;;5072837;28;20203;-60
2023/05/30 07:11:35;;;;;;;7.40;3.90;;;12.30;1.00;;;;;;5066070;28;20267;-60
2023/05/30 07:14:02;;;;;;;7.67;3.97;;;12.40;1.00;;;;;;5084968;28;20220;-60
2023/05/30 07:16:30;;;;;;;6.33;3.33;;;12.50;1.00;;;;;;5082098;28;20676;-60
2023/05/30 07:18:57;;;;;;;8.30;3.93;;;12.40;99.90;;;;;;5085174;28;20295;-60
2023/05/30 07:21:38;;;;;;;7.87;3.70;;;12.30;92.40;;;;;;5085861;28;20304;-60
2023/05/30 07:24:05;;;;;;;13.17;4.33;;;12.30;30.90;;;;;;5080760;28;20210;-60
2023/05/30 07:26:33;;;;;;;7.33;3.87;;;12.40;1.00;;;;;;5065335;28;20212;-60
2023/05/30 07:29:01;;;;;;;7.03;3.70;;;12.40;1.00;;;;;;5087695;28;20245;-61
2023/05/30 07:31:28;;;;;;;6.30;4.03;;;12.60;1.00;;;;;;5082340;28;20209;-60
2023/05/30 07:33:54;;;;;;;6.03;3.57;;;12.70;1.00;;;;;;5085099;28;20225;-60
2023/05/30 07:36:21;;;;;;;7.83;3.60;;;12.70;1.00;;;;;;5084107;28;20544;-61
2023/05/30 07:38:48;;;;;;;5.60;3.77;;;12.70;99.90;;;;;;5084818;28;20255;-61
2023/05/30 07:41:15;;;;;;;11.40;4.83;;;12.60;1.00;;;;;;5083853;28;20203;-61
2023/05/30 07:43:42;;;;;;;8.47;3.60;;;12.80;99.90;;;;;;5083437;28;20199;-60
2023/05/30 07:46:12;;;;;;;6.93;3.93;;;13.00;78.70;;;;;;5084796;28;20228;-62
2023/05/30 07:48:40;;;;;;;8.43;3.67;;;12.90;1.00;;;;;;5082005;28;21066;-62
2023/05/30 07:51:09;;;;;;;7.13;3.60;;;12.80;1.00;;;;;;5082591;28;20287;-62
2023/05/30 07:53:36;;;;;;;10.90;4.20;;;13.40;99.90;;;;;;5081084;28;20193;-62
2023/05/30 07:56:03;;;;;;;7.20;3.50;;;13.90;1.00;;;;;;5079878;28;20228;-62
2023/05/30 07:58:30;;;;;;;7.80;3.47;;;14.30;99.90;;;;;;5085392;28;20289;-63
2023/05/30 08:00:58;;;;;;;5.50;2.87;;;14.80;99.90;;;;;;5086979;28;20203;-62
2023/05/30 08:03:25;;;;;;;7.23;3.70;;;14.70;1.00;;;;;;5086101;28;20550;-62
2023/05/30 08:05:53;;;;;;;8.00;4.07;;;14.40;1.00;;;;;;5076699;28;20217;-62
2023/05/30 08:08:20;;;;;;;8.17;3.80;;;14.20;1.00;;;;;;5084980;28;20199;-62
2023/05/30 08:10:47;;;;;;;6.63;3.90;;;14.10;1.00;;;;;;5085085;28;20205;-61
2023/05/30 08:13:14;;;;;;;13.83;4.10;;;13.70;1.00;;;;;;5080912;28;20668;-62
2023/05/30 08:15:41;;;;;;;9.87;4.60;;;13.90;99.90;;;;;;5082040;28;20213;-62
2023/05/30 08:18:08;;;;;;;8.43;3.93;;;13.70;1.00;;;;;;5081467;28;20205;-63
2023/05/30 08:20:38;;;;;;;9.90;4.00;;;13.80;1.00;;;;;;5079637;28;20293;-62
2023/05/30 08:23:05;;;;;;;8.17;3.73;;;14.20;1.00;;;;;;5080913;28;20263;-62
2023/05/30 08:25:35;;;;;;;8.13;4.03;;;14.70;1.80;;;;;;5085147;28;20218;-62
2023/05/30 08:28:02;;;;;;;11.93;4.63;;;14.60;33.90;;;;;;5084886;28;20267;-62
2023/05/30 08:30:29;;;;;;;9.93;3.73;;;14.90;1.00;;;;;;5086941;28;20206;-62
2023/05/30 08:33:00;;;;;;;8.47;3.57;;;15.30;99.90;;;;;;5081927;28;20233;-62
2023/05/30 08:35:27;;;;;;;5.60;3.57;;;15.40;1.00;;;;;;5082371;28;20767;-61
2023/05/30 08:37:54;;;;;;;6.27;3.20;;;15.60;1.00;;;;;;5077433;28;20706;-62
2023/05/30 08:40:24;;;;;;;5.93;3.27;;;16.10;1.00;;;;;;5086100;28;20231;-63
2023/05/30 08:42:52;;;;;;;12.27;4.37;;;16.60;1.00;;;;;;5062689;28;20351;-62
2023/05/30 08:45:22;;;;;;;12.87;4.23;;;16.50;1.00;;;;;;5087216;28;20204;-62
2023/05/30 08:47:56;;;;;;;7.97;4.20;;;16.20;1.00;;;;;;5084389;28;21234;-62
2023/05/30 08:50:25;;;;;;;8.97;4.20;;;16.20;1.00;;;;;;5085645;28;20292;-62
2023/05/30 08:52:53;;;;;;;9.47;4.27;;;16.50;99.90;;;;;;5067733;28;20208;-62
2023/05/30 08:55:25;;;;;;;8.33;3.93;;;16.10;99.90;;;;;;5086880;28;20202;-62
2023/05/30 08:58:08;;;;;;;7.73;4.40;;;15.70;1.00;;;;;;5083289;28;20250;-62
2023/05/30 09:00:36;;;;;;;6.90;4.50;;;16.00;1.00;;;;;;5081505;28;20212;-62
2023/05/30 09:03:05;;;;;;;8.37;3.97;;;15.80;1.00;;;;;;5082408;28;20193;-62
2023/05/30 09:05:36;;;;;;;6.87;4.43;;;16.60;99.90;;;;;;5086070;28;20206;-62
2023/05/30 09:08:03;;;;;;;5.53;3.73;;;16.20;99.90;;;;;;5089217;28;20193;-62
2023/05/30 09:10:30;;;;;;;8.63;4.43;;;16.10;99.90;;;;;;5072075;28;20204;-62
2023/05/30 09:13:00;;;;;;;10.33;4.47;;;16.10;1.00;;;;;;5085845;28;20601;-63
2023/05/30 09:15:27;;;;;;;7.73;4.63;;;16.10;1.00;;;;;;5090029;28;20205;-62
2023/05/30 09:17:54;;;;;;;8.37;4.43;;;16.70;1.00;;;;;;5089247;28;20201;-61
2023/05/30 09:20:22;;;;;;;9.00;4.03;;;17.40;1.00;;;;;;5088048;28;20225;-61
2023/05/30 09:22:50;;;;;;;12.20;4.43;;;17.40;1.00;;;;;;5084631;28;20203;-61
2023/05/30 09:25:17;;;;;;;11.00;5.30;;;16.90;99.90;;;;;;5087976;28;20209;-61
2023/05/30 09:27:50;;;;;;;6.77;3.90;;;16.50;1.00;;;;;;5087023;28;20355;-61
2023/05/30 09:30:18;;;;;;;7.97;4.30;;;17.00;1.00;;;;;;5084945;28;20249;-61
2023/05/30 09:33:04;;;;;;;5.93;3.93;;;16.90;99.90;;;;;;5087194;28;20232;-62
2023/05/30 09:35:31;;;;;;;10.00;4.23;;;17.30;99.90;;;;;;5084466;28;20649;-61
2023/05/30 09:38:03;;;;;;;10.87;4.67;;;17.20;1.00;;;;;;5086965;28;20198;-61
2023/05/30 09:40:30;;;;;;;7.83;4.00;;;17.90;1.00;;;;;;5086774;28;20270;-61
2023/05/30 09:42:57;;;;;;;9.23;4.63;;;17.40;99.90;;;;;;5053614;28;20201;-61
2023/05/30 09:45:24;;;;;;;7.87;3.93;;;17.30;99.90;;;;;;5087532;28;20199;-61
2023/05/30 09:47:52;;;;;;;5.30;3.97;;;17.10;1.00;;;;;;5088057;28;20199;-61
2023/05/30 09:50:22;;;;;;;16.43;4.83;;;17.80;1.00;;;;;;5068762;28;20205;-61
2023/05/30 09:52:51;;;;;;;9.03;4.97;;;18.00;1.00;;;;;;5088111;28;20599;-61
2023/05/30 09:55:19;;;;;;;5.87;4.20;;;17.50;1.00;;;;;;5086407;28;20722;-61
2023/05/30 09:57:51;;;;;;;9.73;4.40;;;17.00;1.00;;;;;;5086916;28;20285;-61
2023/05/30 10:00:28;;;;;;;8.80;4.57;;;17.50;1.00;;;;;;5080865;28;20281;-61
2023/05/30 10:02:57;;;;;;;10.83;5.13;;;17.70;1.00;;;;;;5068562;28;20204;-61
2023/05/30 10:05:26;;;;;;;14.70;4.47;;;17.40;1.00;;;;;;5086117;28;20211;-61
2023/05/30 10:07:55;;;;;;;7.77;4.33;;;17.40;99.90;;;;;;5089613;28;20213;-61
2023/05/30 10:10:23;;;;;;;6.13;4.30;;;17.80;1.00;;;;;;5088868;28;20194;-61
2023/05/30 10:12:52;;;;;;;9.53;4.60;;;17.30;99.90;;;;;;5087314;28;20194;-60
2023/05/30 10:15:21;;;;;;;8.70;4.30;;;17.10;99.90;;;;;;5086053;28;20615;-59
2023/05/30 10:18:03;;;;;;;10.60;4.30;;;17.80;1.00;;;;;;5088005;28;20225;-60
2023/05/30 10:20:31;;;;;;;6.80;3.93;;;18.10;1.00;;;;;;5089372;28;20213;-60
2023/05/30 10:22:59;;;;;;;8.83;4.73;;;18.60;1.00;;;;;;5089413;28;20217;-61
2023/05/30 10:25:30;;;;;;;12.77;4.63;;;18.50;1.00;;;;;;5086436;28;20563;-60
2023/05/30 10:28:00;;;;;;;12.30;5.10;;;17.90;1.00;;;;;;5084738;28;20232;-59
2023/05/30 10:30:29;;;;;;;7.70;4.70;;;17.40;99.90;;;;;;5083706;28;20727;-60
2023/05/30 10:33:17;;;;;;;10.97;4.73;;;17.90;1.00;;;;;;5083449;28;20245;-59
2023/05/30 10:35:52;;;;;;;10.17;4.67;;;18.40;1.00;;;;;;5082614;28;20251;-60
2023/05/30 10:38:23;;;;;;;10.73;4.80;;;18.00;1.00;;;;;;5088909;28;20666;-59
2023/05/30 10:41:11;;;;;;;12.03;4.87;;;18.20;16.20;;;;;;5086327;28;20664;-60
2023/05/30 10:43:46;;;;;;;10.77;4.50;;;18.20;1.00;;;;;;5082689;28;20583;-59
2023/05/30 10:46:48;;;;;;;8.27;4.90;;;18.30;1.00;;;;;;5064966;28;20250;-60
2023/05/30 10:49:22;;;;;;;9.53;5.13;;;18.30;99.90;;;;;;5085141;28;20193;-59
2023/05/30 10:51:59;;;;;;;7.93;4.53;;;18.30;1.00;;;;;;5080801;28;20228;-60
2023/05/30 10:54:30;;;;;;;6.83;4.30;;;18.00;1.00;;;;;;5086413;28;20193;-59
2023/05/30 10:56:58;;;;;;;9.50;5.67;;;17.90;1.00;;;;;;5084828;28;20227;-60
2023/05/30 10:59:25;;;;;;;9.60;4.93;;;18.30;16.40;;;;;;5085528;28;20578;-60
2023/05/30 11:02:02;;;;;;;8.10;4.60;;;18.30;99.90;;;;;;5085281;28;20205;-60
2023/05/30 11:04:38;;;;;;;10.40;4.33;;;18.70;99.90;;;;;;5085788;28;20287;-65
2023/05/30 11:07:11;;;;;;;9.30;4.90;;;19.00;1.00;;;;;;5086256;28;20209;-60
2023/05/30 11:09:42;;;;;;;7.17;4.20;;;18.60;1.00;;;;;;5086995;28;20260;-61
2023/05/30 11:12:21;;;;;;;6.93;4.37;;;18.90;99.90;;;;;;5084395;28;20206;-60
2023/05/30 11:14:55;;;;;;;7.30;4.13;;;18.80;1.00;;;;;;5085942;28;20584;-60
2023/05/30 11:17:36;;;;;;;6.83;4.50;;;19.60;1.00;;;;;;5085174;28;20220;-61
2023/05/30 11:20:16;;;;;;;9.07;4.60;;;19.40;1.00;;;;;;5082704;28;20590;-62
2023/05/30 11:23:03;;;;;;;9.83;4.30;;;19.40;1.00;;;;;;5082793;28;20540;-61
2023/05/30 11:25:32;;;;;;;7.63;4.57;;;19.70;1.00;;;;;;5054943;28;20563;-61
2023/05/30 11:28:35;;;;;;;11.50;5.13;;;19.50;1.00;;;;;;5083503;28;20245;-61
2023/05/30 11:31:17;;;;;;;9.27;4.63;;;20.10;99.90;;;;;;5084420;28;20229;-61
2023/05/30 11:33:50;;;;;;;10.43;4.43;;;20.10;58.00;;;;;;5085101;28;20645;-61
2023/05/30 11:36:17;;;;;;;8.47;4.60;;;20.30;99.90;;;;;;5068072;28;20656;-61
2023/05/30 11:38:48;;;;;;;12.97;5.07;;;19.80;99.90;;;;;;5084642;28;20209;-61
2023/05/30 11:41:15;;;;;;;8.43;4.50;;;19.70;1.00;;;;;;5086489;28;20206;-61
2023/05/30 11:43:44;;;;;;;7.80;4.00;;;19.90;99.90;;;;;;5082055;28;20218;-61
2023/05/30 11:46:12;;;;;;;6.37;4.20;;;20.40;99.90;;;;;;5084549;28;20234;-62
2023/05/30 11:48:40;;;;;;;11.00;4.90;;;20.70;99.90;;;;;;5084356;28;20252;-65
2023/05/30 11:51:08;;;;;;;8.57;4.60;;;20.90;99.90;;;;;;5086828;28;20229;-61
2023/05/30 11:53:36;;;;;;;12.57;4.13;;;20.50;99.90;;;;;;5063337;28;20569;-61
2023/05/30 11:56:03;;;;;;;7.33;4.10;;;20.70;52.00;;;;;;5085828;28;20198;-61
2023/05/30 11:58:30;;;;;;;6.53;3.43;;;20.40;99.90;;;;;;5087050;28;20198;-61
2023/05/30 12:00:58;;;;;;;9.00;4.00;;;21.00;99.90;;;;;;5085604;28;20210;-61
2023/05/30 12:03:25;;;;;;;7.40;3.83;;;21.10;99.90;;;;;;5085198;28;20207;-62
2023/05/30 12:05:52;;;;;;;6.13;3.80;;;21.30;99.90;;;;;;5086807;28;20238;-61
2023/05/30 12:08:19;;;;;;;9.47;4.00;;;21.00;99.90;;;;;;5086370;28;20214;-61
2023/05/30 12:10:50;;;;;;;11.67;4.00;;;21.00;99.90;;;;;;5083892;28;20642;-61
2023/05/30 12:13:19;;;;;;;5.60;3.47;;;20.70;99.90;;;;;;5085271;28;20616;-61
2023/05/30 12:15:46;;;;;;;5.83;3.10;;;21.60;99.90;;;;;;5085628;28;20199;-61
2023/05/30 12:18:16;;;;;;;9.43;3.80;;;21.80;99.90;;;;;;5084765;28;20194;-61
2023/05/30 12:20:44;;;;;;;8.60;3.90;;;21.30;99.90;;;;;;5085249;28;20211;-61
2023/05/30 12:23:12;;;;;;;5.60;3.00;;;21.10;99.90;;;;;;5059814;28;20209;-61
2023/05/30 12:25:39;;;;;;;8.30;4.00;;;21.80;99.90;;;;;;5082944;28;20622;-62
2023/05/30 12:28:07;;;;;;;11.70;3.47;;;21.20;99.90;;;;;;5065170;28;20214;-61
2023/05/30 12:30:37;;;;;;;8.77;3.63;;;21.60;99.90;;;;;;5079835;28;20230;-61
2023/05/30 12:33:15;;;;;;;9.70;3.80;;;21.30;99.90;;;;;;5059967;28;20226;-61
2023/05/30 12:35:42;;;;;;;6.73;3.20;;;21.70;99.90;;;;;;5081620;28;20218;-61
2023/05/30 12:38:12;;;;;;;8.70;3.33;;;22.20;99.90;;;;;;5084331;28;20240;-61
2023/05/30 12:40:46;;;;;;;10.63;4.17;;;22.00;99.90;;;;;;5080799;28;20218;-61
2023/05/30 12:43:15;;;;;;;6.67;3.73;;;22.00;99.90;;;;;;5083766;28;20298;-61
2023/05/30 12:45:45;;;;;;;9.90;3.63;;;21.20;99.90;;;;;;5066495;28;20252;-61
2023/05/30 12:48:12;;;;;;;7.87;4.00;;;20.80;99.90;;;;;;5084831;28;20230;-61
2023/05/30 12:50:40;;;;;;;8.07;3.73;;;21.10;1.00;;;;;;5077160;28;20282;-61
2023/05/30 12:53:07;;;;;;;6.70;3.27;;;21.00;99.90;;;;;;5079687;28;20279;-61
2023/05/30 12:55:34;;;;;;;7.23;3.67;;;21.30;99.90;;;;;;5085336;28;20195;-61